Time;durP1;ratioP1;P1;durP2;ratioP2;P2;SDS_P1;SDS_P2;PMS_P1;PMS_P2;Temp;Humidity;BMP_temperature;BMP_pressure;BME280_temperature;BME280_humidity;BME280_pressure;Samples;Min_cycle;Max_cycle;Signal;HPM_P1;HPM_P2
2022/03/26 00:00:07;;;;;;;14.90;6.40;;;;;;;4.36;56.19;99026.34;4862945;29;20075;-80
2022/03/26 00:02:33;;;;;;;13.82;5.55;;;;;;;4.34;55.71;99007.44;4862914;29;20071;-78
2022/03/26 00:05:00;;;;;;;9.73;5.80;;;;;;;4.77;55.92;99081.47;4879436;29;20474;-81
2022/03/26 00:07:26;;;;;;;14.30;6.90;;;;;;;4.28;56.17;98990.25;4848147;29;20060;-78
2022/03/26 00:09:53;;;;;;;14.77;7.20;;;;;;;4.80;55.99;99071.16;4878197;29;20049;-80
2022/03/26 00:12:19;;;;;;;12.00;6.43;;;;;;;4.78;56.27;99062.56;4878767;29;20527;-79
2022/03/26 00:14:45;;;;;;;12.13;6.10;;;;;;;4.56;55.74;99025.53;4860759;29;20405;-77
2022/03/26 00:17:11;;;;;;;11.20;7.28;;;;;;;4.49;56.06;99011.78;4860898;29;20040;-78
2022/03/26 00:19:37;;;;;;;14.65;6.47;;;;;;;4.65;56.30;99035.88;4844830;29;20096;-78
2022/03/26 00:22:03;;;;;;;12.65;6.10;;;;;;;4.57;55.99;99022.09;4860330;29;20053;-78
2022/03/26 00:24:29;;;;;;;10.30;6.05;;;;;;;4.72;56.63;99031.59;4877081;29;20531;-78
2022/03/26 00:26:55;;;;;;;9.45;5.47;;;;;;;4.59;56.32;99002.38;4845347;29;20069;-77
2022/03/26 00:29:21;;;;;;;11.27;5.78;;;;;;;4.72;55.89;99024.75;4861001;29;20052;-78
2022/03/26 00:31:47;;;;;;;10.80;5.90;;;;;;;4.72;56.42;99008.41;4878033;29;20045;-80
2022/03/26 00:34:14;;;;;;;9.55;5.80;;;;;;;4.49;56.34;98967.97;4861408;29;20047;-79
2022/03/26 00:36:40;;;;;;;11.32;5.47;;;;;;;4.57;56.42;98978.31;4861759;29;20049;-77
2022/03/26 00:39:06;;;;;;;10.52;5.60;;;;;;;4.55;56.11;98978.31;4845385;29;20041;-79
2022/03/26 00:41:33;;;;;;;9.68;6.00;;;;;;;4.70;56.34;98992.97;4861463;29;20047;-80
2022/03/26 00:43:59;;;;;;;9.07;5.40;;;;;;;4.60;56.75;98975.75;4870474;29;20045;-79
2022/03/26 00:46:25;;;;;;;11.73;6.20;;;;;;;4.65;56.26;98976.63;4865327;29;20048;-79
2022/03/26 00:48:51;;;;;;;12.27;6.00;;;;;;;4.67;56.43;98962.03;4860885;29;20460;-78
2022/03/26 00:51:17;;;;;;;11.43;5.97;;;;;;;4.67;56.55;98962.03;4877020;29;20041;-82
2022/03/26 00:53:45;;;;;;;11.18;5.78;;;;;;;4.41;56.82;98911.28;4860486;29;20128;-78
2022/03/26 00:56:12;;;;;;;10.38;6.30;;;;;;;4.22;56.84;98874.31;4877621;29;20048;-78
2022/03/26 00:58:39;;;;;;;11.23;5.88;;;;;;;4.52;57.07;98917.31;4845756;29;20041;-80
2022/03/26 01:01:04;;;;;;;9.95;5.80;;;;;;;4.60;56.67;98919.91;4887260;29;20052;-79
2022/03/26 01:03:31;;;;;;;13.10;5.78;;;;;;;4.68;56.70;98922.50;4877993;29;20497;-78
2022/03/26 01:05:57;;;;;;;12.23;5.70;;;;;;;4.70;56.23;98922.50;4873124;29;20109;-78
2022/03/26 01:08:22;;;;;;;10.02;5.78;;;;;;;4.56;56.90;98886.41;4888693;29;20120;-77
2022/03/26 01:10:48;;;;;;;12.68;5.35;;;;;;;4.62;56.92;98879.56;4889283;29;20041;-77
2022/03/26 01:13:14;;;;;;;13.45;6.05;;;;;;;4.66;56.72;98882.97;4856560;29;20108;-78
2022/03/26 01:15:41;;;;;;;11.95;6.13;;;;;;;4.74;56.87;98885.56;4870892;29;20065;-79
2022/03/26 01:18:07;;;;;;;15.32;6.50;;;;;;;4.75;56.35;98876.97;4876721;29;20045;-79
2022/03/26 01:20:33;;;;;;;11.93;6.05;;;;;;;4.52;56.62;98836.59;4886586;29;20309;-78
2022/03/26 01:23:00;;;;;;;11.30;6.07;;;;;;;4.74;56.55;98870.09;4902591;29;20056;-78
2022/03/26 01:25:26;;;;;;;9.10;5.80;;;;;;;4.56;56.49;98829.72;4867439;29;20041;-77
2022/03/26 01:27:52;;;;;;;12.02;5.93;;;;;;;4.46;56.54;98816.84;4901663;29;20036;-79
2022/03/26 01:30:18;;;;;;;10.80;6.05;;;;;;;4.55;56.27;98828.88;4861118;29;20132;-79
2022/03/26 01:32:44;;;;;;;11.45;5.80;;;;;;;4.56;56.28;98827.13;4863808;29;20189;-79
2022/03/26 01:35:12;;;;;;;10.27;5.50;;;;;;;4.51;56.33;98815.13;4880051;29;20052;-78
2022/03/26 01:37:38;;;;;;;16.42;6.10;;;;;;;4.66;56.80;98831.44;4863337;29;20044;-79
2022/03/26 01:40:06;;;;;;;10.90;5.78;;;;;;;4.70;56.39;98821.97;4850727;29;20043;-78
2022/03/26 01:42:32;;;;;;;11.88;6.22;;;;;;;4.51;56.48;98791.06;4869874;29;20138;-79
2022/03/26 01:44:58;;;;;;;9.55;5.82;;;;;;;4.14;56.14;98724.97;4884959;29;20037;-77
2022/03/26 01:47:25;;;;;;;9.98;6.05;;;;;;;4.78;56.22;98809.94;4855324;29;20045;-80
2022/03/26 01:49:51;;;;;;;11.82;6.15;;;;;;;4.83;56.07;98808.22;4872890;29;20049;-78
2022/03/26 01:52:18;;;;;;;9.13;6.10;;;;;;;4.55;55.71;98735.22;4870163;29;20108;-78
2022/03/26 01:54:44;;;;;;;10.20;5.47;;;;;;;4.58;55.78;98730.94;4863577;29;20069;-81
2022/03/26 01:57:11;;;;;;;10.75;5.50;;;;;;;4.87;55.48;98762.66;4862734;29;20561;-79
2022/03/26 01:59:39;;;;;;;9.93;5.47;;;;;;;4.82;55.52;98745.50;4862598;29;20041;-79
2022/03/26 02:02:06;;;;;;;7.25;5.25;;;;;;;5.09;55.72;98774.66;4848432;29;20056;-78
2022/03/26 02:04:34;;;;;;;9.18;5.93;;;;;;;5.08;54.88;98759.16;4882592;29;20043;-77
2022/03/26 02:07:02;;;;;;;12.07;5.80;;;;;;;4.89;55.15;98720.53;4864778;29;20076;-78
2022/03/26 02:09:35;;;;;;;11.55;5.68;;;;;;;4.77;55.01;98685.34;4862628;29;20037;-78
2022/03/26 02:12:20;;;;;;;10.10;6.03;;;;;;;5.19;54.77;98741.06;4847661;29;20081;-80
2022/03/26 02:14:47;;;;;;;13.77;6.50;;;;;;;4.51;54.91;98628.75;4862516;29;20045;-78
2022/03/26 02:17:13;;;;;;;10.68;5.70;;;;;;;5.18;54.84;98736.81;4877844;29;20056;-79
2022/03/26 02:19:39;;;;;;;8.88;5.47;;;;;;;5.17;54.98;98730.78;4849372;29;20048;-78
2022/03/26 02:22:05;;;;;;;11.45;5.90;;;;;;;4.82;54.50;98668.16;4852460;29;20061;-76
2022/03/26 02:24:31;;;;;;;10.85;5.25;;;;;;;5.04;54.16;98690.44;4848467;29;20513;-79
2022/03/26 02:26:57;;;;;;;9.15;6.07;;;;;;;4.86;54.22;98643.22;4845444;29;20051;-79
2022/03/26 02:29:25;;;;;;;8.38;5.82;;;;;;;5.06;53.71;98676.66;4866867;29;20049;-77
2022/03/26 02:31:51;;;;;;;11.82;5.78;;;;;;;5.31;54.26;98698.88;4845928;29;20049;-79
2022/03/26 02:34:17;;;;;;;10.70;5.30;;;;;;;5.34;53.85;98689.44;4878144;29;20041;-80
2022/03/26 02:36:43;;;;;;;10.10;5.70;;;;;;;5.38;53.63;98682.53;4860599;29;20041;-79
2022/03/26 02:39:09;;;;;;;9.90;5.90;;;;;;;5.29;53.96;98660.22;4860646;29;20071;-77
2022/03/26 02:41:35;;;;;;;12.45;5.55;;;;;;;5.28;53.90;98638.72;4877408;29;20048;-79
2022/03/26 02:44:02;;;;;;;8.88;5.60;;;;;;;5.35;53.21;98649.88;4860882;29;20123;-80
2022/03/26 02:46:28;;;;;;;13.73;5.93;;;;;;;5.22;53.52;98630.16;4861058;29;20048;-80
2022/03/26 02:48:54;;;;;;;12.23;5.85;;;;;;;5.11;53.15;98607.88;4845772;29;20064;-77
2022/03/26 02:51:20;;;;;;;8.30;5.35;;;;;;;5.24;53.51;98607.78;4845914;29;20079;-79
2022/03/26 02:53:46;;;;;;;11.27;5.90;;;;;;;5.35;53.31;98612.88;4860761;29;20063;-79
2022/03/26 02:56:12;;;;;;;11.45;5.35;;;;;;;5.45;53.41;98642.06;4861357;29;20520;-77
2022/03/26 02:58:38;;;;;;;10.05;5.38;;;;;;;5.42;52.98;98623.13;4882933;29;20044;-78
2022/03/26 03:01:04;;;;;;;9.82;5.20;;;;;;;5.41;52.99;98630.91;4878367;29;20096;-79
2022/03/26 03:03:30;;;;;;;9.18;5.30;;;;;;;5.38;52.78;98613.72;4878867;29;20053;-78
2022/03/26 03:05:56;;;;;;;10.23;5.65;;;;;;;5.39;53.33;98622.31;4862986;29;20076;-77
2022/03/26 03:08:22;;;;;;;8.73;5.63;;;;;;;5.34;53.40;98604.28;4845294;29;20077;-78
2022/03/26 03:10:48;;;;;;;8.68;5.28;;;;;;;5.21;52.83;98588.03;4877765;29;20076;-81
2022/03/26 03:13:14;;;;;;;13.45;5.60;;;;;;;5.23;53.22;98581.16;4859850;29;20513;-80
2022/03/26 03:15:40;;;;;;;7.75;5.47;;;;;;;5.17;52.87;98560.56;4844870;29;20049;-77
2022/03/26 03:18:07;;;;;;;10.43;5.80;;;;;;;5.28;53.11;98591.44;4859868;29;20067;-78
2022/03/26 03:20:33;;;;;;;10.82;5.95;;;;;;;5.32;52.86;98582.81;4860732;29;20081;-78
2022/03/26 03:22:59;;;;;;;9.50;5.80;;;;;;;5.23;52.80;98554.47;4843640;29;20576;-78
2022/03/26 03:25:29;;;;;;;11.07;5.60;;;;;;;5.25;52.98;98550.19;4844331;29;20040;-79
2022/03/26 03:27:56;;;;;;;9.57;5.90;;;;;;;5.23;53.07;98539.88;4877605;29;20069;-78
2022/03/26 03:30:22;;;;;;;12.07;6.20;;;;;;;5.05;53.53;98489.28;4860070;29;20052;-80
2022/03/26 03:32:48;;;;;;;10.88;5.72;;;;;;;5.19;53.07;98508.94;4877525;29;20040;-78
2022/03/26 03:35:17;;;;;;;8.73;5.65;;;;;;;5.23;53.66;98497.75;4875956;29;20068;-76
2022/03/26 03:37:43;;;;;;;9.52;5.80;;;;;;;5.41;52.65;98507.91;4860207;29;20045;-80
2022/03/26 03:40:10;;;;;;;13.02;6.57;;;;;;;5.26;52.84;98498.59;4859795;29;20096;-79
2022/03/26 03:42:37;;;;;;;10.73;5.93;;;;;;;5.36;53.25;98501.06;4860419;29;20041;-77
2022/03/26 03:45:05;;;;;;;11.20;6.30;;;;;;;5.26;53.11;98479.66;4860034;29;20092;-78
2022/03/26 03:47:32;;;;;;;10.85;6.10;;;;;;;5.35;53.42;98487.34;4861602;29;20092;-80
2022/03/26 03:49:58;;;;;;;10.25;5.75;;;;;;;5.33;53.08;98455.53;4876951;29;20053;-79
2022/03/26 03:52:24;;;;;;;8.40;5.70;;;;;;;5.40;52.96;98433.97;4861909;29;20067;-77
2022/03/26 03:54:50;;;;;;;13.23;5.68;;;;;;;5.40;52.54;98446.88;4865261;29;20044;-76
2022/03/26 03:57:16;;;;;;;11.13;5.57;;;;;;;5.42;52.99;98441.69;4868764;29;20124;-78
2022/03/26 03:59:42;;;;;;;8.77;5.93;;;;;;;5.42;53.11;98472.66;4869082;29;20112;-79
2022/03/26 04:02:12;;;;;;;10.60;6.07;;;;;;;5.40;52.91;98467.53;4862173;29;20068;-79
2022/03/26 04:04:45;;;;;;;11.93;5.90;;;;;;;5.34;53.03;98444.34;4861224;29;20048;-78
2022/03/26 04:07:11;;;;;;;12.13;6.32;;;;;;;5.43;53.41;98454.56;4865039;29;20044;-78
2022/03/26 04:09:37;;;;;;;13.13;5.97;;;;;;;5.51;52.60;98451.06;4863931;29;20045;-78
2022/03/26 04:12:04;;;;;;;10.57;5.97;;;;;;;5.39;52.78;98439.13;4877164;29;20091;-80
2022/03/26 04:14:31;;;;;;;10.70;5.30;;;;;;;5.53;52.78;98439.00;4859791;29;20135;-79
2022/03/26 04:16:57;;;;;;;9.68;5.80;;;;;;;5.44;52.50;98424.47;4875947;29;20080;-80
2022/03/26 04:19:23;;;;;;;9.82;5.32;;;;;;;5.49;52.70;98427.00;4858989;29;20184;-79
2022/03/26 04:21:49;;;;;;;11.07;5.88;;;;;;;5.45;52.42;98415.88;4859132;29;20068;-80
2022/03/26 04:24:16;;;;;;;12.35;6.20;;;;;;;5.33;52.24;98400.50;4859510;29;20152;-81
2022/03/26 04:26:43;;;;;;;10.38;5.65;;;;;;;5.54;52.68;98413.19;4875867;29;20056;-79
2022/03/26 04:29:09;;;;;;;12.15;5.95;;;;;;;5.58;52.06;98411.44;4876218;29;20140;-77
2022/03/26 04:31:35;;;;;;;12.95;6.00;;;;;;;5.65;51.89;98422.53;4860149;29;20744;-79
2022/03/26 04:34:01;;;;;;;11.63;5.45;;;;;;;5.68;52.66;98399.28;4863045;29;20053;-78
2022/03/26 04:36:31;;;;;;;10.98;5.80;;;;;;;5.46;52.51;98336.72;4879931;29;20037;-78
2022/03/26 04:38:58;;;;;;;11.43;5.70;;;;;;;5.62;52.35;98360.63;4862522;29;20060;-79
2022/03/26 04:41:25;;;;;;;9.38;5.80;;;;;;;5.78;51.72;98371.63;4846753;29;20462;-78
2022/03/26 04:43:51;;;;;;;9.52;5.90;;;;;;;5.75;51.54;98351.03;4880637;29;20379;-78
2022/03/26 04:46:17;;;;;;;14.95;6.10;;;;;;;5.81;51.67;98345.78;4862600;29;20049;-78
2022/03/26 04:48:45;;;;;;;14.05;6.20;;;;;;;5.70;52.03;98328.69;4879408;29;20049;-78
2022/03/26 04:51:13;;;;;;;15.88;6.25;;;;;;;5.83;51.07;98344.03;4862432;29;20111;-80
2022/03/26 04:53:39;;;;;;;11.68;6.30;;;;;;;5.79;51.48;98317.38;4847157;29;20045;-78
2022/03/26 04:56:05;;;;;;;12.35;5.88;;;;;;;5.84;51.21;98317.34;4879225;29;20085;-80
2022/03/26 04:58:32;;;;;;;10.20;5.95;;;;;;;5.60;51.30;98269.47;4879328;29;20052;-78
2022/03/26 05:00:59;;;;;;;15.43;6.38;;;;;;;5.72;50.96;98288.22;4879195;29;20041;-79
2022/03/26 05:03:25;;;;;;;15.68;6.55;;;;;;;5.92;51.15;98296.59;4862658;29;20040;-79
2022/03/26 05:06:17;;;;;;;14.57;5.93;;;;;;;5.53;51.00;98217.09;4847219;29;20041;-78
2022/03/26 05:08:46;;;;;;;15.05;6.32;;;;;;;6.01;50.96;98276.69;4862449;29;20108;-78
2022/03/26 05:11:12;;;;;;;11.40;6.53;;;;;;;6.03;51.32;98256.00;4861887;29;20045;-80
2022/03/26 05:13:38;;;;;;;11.55;5.97;;;;;;;6.08;50.82;98248.16;4862032;29;20128;-79
2022/03/26 05:16:05;;;;;;;8.90;5.57;;;;;;;5.96;50.93;98233.72;4862384;29;20045;-79
2022/03/26 05:18:31;;;;;;;10.65;6.05;;;;;;;5.50;50.88;98155.22;4861929;29;20052;-79
2022/03/26 05:20:57;;;;;;;10.48;5.72;;;;;;;5.85;51.03;98200.28;4881747;29;20124;-81
2022/03/26 05:23:26;;;;;;;9.85;5.93;;;;;;;5.98;50.72;98214.72;4846974;29;20061;-78
2022/03/26 05:25:53;;;;;;;11.40;6.63;;;;;;;6.11;51.10;98230.03;4861963;29;20056;-77
2022/03/26 05:28:20;;;;;;;10.77;6.07;;;;;;;5.97;50.78;98191.50;4862421;29;20083;-80
2022/03/26 05:30:50;;;;;;;17.35;6.20;;;;;;;6.29;50.63;98234.06;4862137;29;20053;-78
2022/03/26 05:33:17;;;;;;;10.80;6.20;;;;;;;6.33;50.54;98222.81;4883783;29;20101;-77
2022/03/26 05:35:43;;;;;;;12.50;5.90;;;;;;;6.20;50.61;98183.41;4870075;29;20059;-79
2022/03/26 05:38:09;;;;;;;13.95;6.45;;;;;;;5.67;50.17;98078.38;4882018;29;20097;-78
2022/03/26 05:40:37;;;;;;;12.27;6.13;;;;;;;6.24;50.86;98153.19;4862322;29;20041;-77
2022/03/26 05:43:03;;;;;;;14.88;5.97;;;;;;;6.36;50.57;98177.97;4879212;29;20040;-79
2022/03/26 05:45:30;;;;;;;10.48;5.93;;;;;;;6.45;49.87;98193.31;4878776;29;20535;-78
2022/03/26 05:48:02;;;;;;;15.45;6.38;;;;;;;6.42;50.24;98185.63;4863055;29;20505;-79
2022/03/26 05:50:29;;;;;;;9.65;5.82;;;;;;;6.40;50.12;98180.47;4847482;29;20045;-81
2022/03/26 05:52:56;;;;;;;13.88;6.57;;;;;;;6.45;50.39;98170.06;4846152;29;20544;-80
2022/03/26 05:55:23;;;;;;;8.30;5.90;;;;;;;6.60;50.23;98164.59;4861283;29;20045;-80
2022/03/26 05:57:49;;;;;;;17.73;6.47;;;;;;;6.61;49.78;98157.72;4861475;29;20562;-79
2022/03/26 06:00:15;;;;;;;16.75;6.53;;;;;;;6.72;50.23;98160.09;4846204;29;20091;-78
2022/03/26 06:02:47;;;;;;;11.93;6.32;;;;;;;6.82;49.99;98153.00;4846621;29;20044;-78
2022/03/26 06:05:13;;;;;;;13.23;5.90;;;;;;;6.89;50.04;98149.41;4862665;29;20101;-78
2022/03/26 06:07:39;;;;;;;9.25;5.93;;;;;;;7.06;49.29;98159.41;4861891;29;20045;-80
2022/03/26 06:10:07;;;;;;;9.70;6.10;;;;;;;7.04;49.71;98156.88;4862226;29;20132;-78
2022/03/26 06:12:35;;;;;;;14.73;6.53;;;;;;;7.01;50.02;98127.59;4869556;29;20037;-78
2022/03/26 06:15:03;;;;;;;11.70;6.53;;;;;;;7.12;49.84;98138.59;4899467;29;20027;-79
2022/03/26 06:17:36;;;;;;;14.10;7.15;;;;;;;7.16;49.51;98135.06;4892514;29;20037;-80
2022/03/26 06:20:11;;;;;;;13.55;6.22;;;;;;;6.66;49.77;98034.38;4891769;29;20080;-80
2022/03/26 06:22:49;;;;;;;13.02;7.07;;;;;;;6.43;49.37;97999.53;4854499;29;20254;-78
2022/03/26 06:25:15;;;;;;;19.33;6.45;;;;;;;7.21;49.27;98096.97;4863706;29;20048;-77
2022/03/26 06:27:41;;;;;;;12.75;6.88;;;;;;;6.53;49.54;97971.78;4878878;29;20425;-78
2022/03/26 06:30:08;;;;;;;13.73;6.82;;;;;;;7.42;49.35;98097.38;4862831;29;20052;-81
2022/03/26 06:32:40;;;;;;;14.05;6.60;;;;;;;7.48;49.04;98079.13;4847290;29;20040;-82
2022/03/26 06:35:06;;;;;;;17.45;6.57;;;;;;;7.54;48.77;98067.75;4880896;29;20139;-79
2022/03/26 06:37:53;;;;;;;12.93;6.80;;;;;;;7.44;48.74;98036.09;4849023;29;20044;-81
2022/03/26 06:40:23;;;;;;;11.50;6.40;;;;;;;7.27;48.40;97997.69;4879634;29;20048;-80
2022/03/26 06:43:23;;;;;;;;;;;;;;;7.66;48.85;98053.66;4864157;29;20043;-80
2022/03/26 06:45:53;;;;;;;11.50;6.75;;;;;;;7.57;48.45;98043.56;4863658;29;19926;-78
2022/03/26 06:48:56;;;;;;;12.82;6.60;;;;;;;7.51;48.29;98031.59;4847919;29;20138;-78
2022/03/26 06:51:42;;;;;;;;;;;;;;;7.50;48.80;98023.00;4863685;29;20052;-82
2022/03/26 06:57:19;;;;;;;14.77;6.03;;;;;;;7.43;48.46;98011.09;4845627;29;20053;-80
2022/03/26 06:59:48;;;;;;;11.68;6.50;;;;;;;7.01;48.90;97934.50;4866560;29;20081;-83
2022/03/26 07:02:17;;;;;;;14.98;7.55;;;;;;;7.37;48.82;97998.31;4867298;29;20045;-83
2022/03/26 07:04:46;;;;;;;17.40;6.85;;;;;;;6.95;48.71;97923.47;4856909;29;20041;-79
2022/03/26 07:07:14;;;;;;;15.40;7.15;;;;;;;7.09;49.48;97924.81;4866477;29;20060;-79
2022/03/26 07:09:43;;;;;;;15.77;6.88;;;;;;;6.67;48.94;97836.22;4856616;29;20100;-79
2022/03/26 07:12:10;;;;;;;14.07;6.53;;;;;;;7.43;48.78;97940.38;4858386;29;20044;-80
2022/03/26 07:14:36;;;;;;;15.65;7.00;;;;;;;7.50;48.79;97955.72;4867763;29;20199;-82
2022/03/26 07:17:12;;;;;;;12.75;6.57;;;;;;;7.32;49.08;97912.19;4862178;29;20045;-83
2022/03/26 07:19:41;;;;;;;10.90;6.40;;;;;;;7.36;48.82;97895.69;4862954;29;20044;-80
2022/03/26 07:22:08;;;;;;;11.10;6.63;;;;;;;6.78;48.84;97798.88;4849244;29;20060;-81
2022/03/26 07:24:35;;;;;;;9.70;6.35;;;;;;;7.42;48.73;97872.22;4866535;29;20037;-82
2022/03/26 07:27:01;;;;;;;12.70;7.35;;;;;;;7.30;48.53;97818.25;4846645;29;20176;-82
2022/03/26 07:29:32;;;;;;;19.25;7.20;;;;;;;7.04;48.18;97765.47;4864258;29;20064;-87
2022/03/26 07:32:09;;;;;;;12.60;6.47;;;;;;;7.94;47.92;97901.03;4846784;29;20421;-81
2022/03/26 07:34:36;;;;;;;13.70;6.80;;;;;;;7.49;48.42;97834.13;4862861;29;20037;-83
2022/03/26 07:37:02;;;;;;;10.07;7.15;;;;;;;7.57;48.00;97815.78;4861575;29;20055;-85
2022/03/26 07:39:28;;;;;;;17.92;7.63;;;;;;;7.21;48.21;97768.44;4878748;29;20130;-81
2022/03/26 07:41:54;;;;;;;17.83;7.03;;;;;;;7.42;48.28;97786.84;4876950;29;20097;-81
2022/03/26 07:44:22;;;;;;;13.30;6.43;;;;;;;7.58;48.15;97814.88;4846278;29;20555;-83
2022/03/26 07:46:47;;;;;;;15.85;6.65;;;;;;;7.85;47.84;97839.13;4861485;29;20048;-80
2022/03/26 07:49:16;;;;;;;15.90;7.15;;;;;;;7.93;47.67;97857.91;4846018;29;20067;-78
2022/03/26 07:51:49;;;;;;;12.50;6.50;;;;;;;7.37;48.04;97760.25;4860933;29;20105;-80
2022/03/26 07:54:15;;;;;;;18.92;6.70;;;;;;;7.67;47.99;97791.31;4861316;29;20057;-81
2022/03/26 07:56:44;;;;;;;21.73;7.05;;;;;;;7.39;47.62;97761.06;4859233;29;20049;-82
2022/03/26 07:59:16;;;;;;;;;;;;;;;7.85;48.03;97823.59;4849557;29;20075;-84
2022/03/26 08:01:42;;;;;;;15.25;6.60;;;;;;;6.52;47.96;97608.28;4845777;29;20066;-81
2022/03/26 08:04:09;;;;;;;9.20;6.35;;;;;;;7.43;47.80;97754.88;4862167;29;20047;-81
2022/03/26 08:06:45;;;;;;;11.05;6.80;;;;;;;7.03;47.43;97687.03;4846559;29;20044;-82
2022/03/26 08:09:11;;;;;;;13.65;6.32;;;;;;;7.61;47.62;97775.97;4862021;29;20430;-81
2022/03/26 08:11:57;;;;;;;16.48;6.95;;;;;;;7.10;47.90;97687.72;4869200;29;20068;-81
2022/03/26 08:14:32;;;;;;;12.45;6.25;;;;;;;6.55;48.07;97610.81;4860728;29;20057;-80
2022/03/26 08:17:27;;;;;;;14.15;6.50;;;;;;;6.75;47.87;97648.16;4884224;29;20084;-83
2022/03/26 08:20:19;;;;;;;18.13;7.25;;;;;;;6.58;48.52;97626.22;4874590;29;20068;-81
2022/03/26 08:22:55;;;;;;;11.02;6.55;;;;;;;6.12;49.11;97596.44;4836470;29;20061;-82
2022/03/26 08:28:18;;;;;;;16.33;6.85;;;;;;;6.86;50.52;97754.72;4855066;29;20072;-81
2022/03/26 08:30:44;;;;;;;11.85;7.18;;;;;;;6.16;51.57;97644.56;4840572;29;20060;-82
2022/03/26 08:33:25;;;;;;;14.65;7.40;;;;;;;6.55;52.55;97711.59;4873562;29;20049;-83
2022/03/26 08:35:51;;;;;;;12.52;7.72;;;;;;;6.87;53.27;97745.22;4872853;29;20144;-83
2022/03/26 08:38:22;;;;;;;13.68;7.70;;;;;;;6.52;53.25;97657.38;4873724;29;20041;-83
2022/03/26 08:40:49;;;;;;;12.47;7.90;;;;;;;7.04;54.09;97727.53;4835052;29;20086;-79
2022/03/26 08:43:20;;;;;;;13.63;7.72;;;;;;;6.50;54.25;97617.84;4851225;29;20056;-81
2022/03/26 08:45:59;;;;;;;;;;;;;;;7.02;53.95;97693.13;4856237;29;20033;-80
2022/03/26 08:48:49;;;;;;;10.48;6.50;;;;;;;6.87;54.54;97696.97;4860198;29;19944;-79
2022/03/26 08:51:19;;;;;;;15.63;7.57;;;;;;;5.49;55.13;97462.97;4872679;29;20046;-81
2022/03/26 08:53:54;;;;;;;16.35;7.75;;;;;;;6.59;55.04;97686.53;4852313;29;20506;-84
2022/03/26 08:56:20;;;;;;;14.25;8.32;;;;;;;6.47;55.20;97660.09;4819262;29;20136;-78
2022/03/26 08:58:47;;;;;;;18.63;8.75;;;;;;;6.41;56.18;97641.34;4833900;29;20108;-81
2022/03/26 09:01:25;;;;;;;15.18;8.05;;;;;;;6.37;55.97;97637.13;4868419;29;20049;-79
2022/03/26 09:03:52;;;;;;;12.68;7.60;;;;;;;6.29;56.36;97612.34;4858185;29;20070;-81
2022/03/26 09:06:19;;;;;;;16.15;8.38;;;;;;;6.44;56.80;97638.69;4870649;29;20030;-80
2022/03/26 09:11:28;;;;;;;14.63;8.18;;;;;;;5.89;56.88;97564.28;4846682;29;20088;-79
2022/03/26 09:13:54;;;;;;;14.75;7.70;;;;;;;5.96;57.72;97591.66;4845989;29;20086;-83
2022/03/26 09:16:20;;;;;;;17.75;8.35;;;;;;;5.79;57.50;97558.53;4835712;29;20061;-80
2022/03/26 09:18:47;;;;;;;15.20;8.85;;;;;;;5.62;58.06;97528.00;4853931;29;20045;-82
2022/03/26 09:21:16;;;;;;;19.23;9.00;;;;;;;6.03;57.81;97558.81;4846468;29;20050;-81
2022/03/26 09:23:54;;;;;;;16.35;8.23;;;;;;;5.63;58.68;97526.25;4851101;29;20061;-80
2022/03/26 09:26:26;;;;;;;17.92;8.63;;;;;;;6.27;59.07;97636.53;4862386;29;20080;-80
2022/03/26 09:29:01;;;;;;;14.65;8.30;;;;;;;5.71;59.51;97560.47;4853555;29;20055;-79
2022/03/26 09:31:27;;;;;;;14.25;8.38;;;;;;;5.78;59.26;97610.19;4854561;29;20042;-79
2022/03/26 09:33:53;;;;;;;14.05;8.90;;;;;;;5.58;60.37;97620.09;4864175;29;20074;-83
2022/03/26 09:36:19;;;;;;;17.15;9.55;;;;;;;5.70;60.75;97652.50;4868017;29;20213;-79
2022/03/26 09:38:48;;;;;;;15.77;9.77;;;;;;;5.55;61.63;97616.75;4850081;29;20069;-80
2022/03/26 09:41:14;;;;;;;16.80;9.18;;;;;;;5.57;61.79;97613.25;4837668;29;20033;-79
2022/03/26 09:43:43;;;;;;;18.52;8.98;;;;;;;5.54;62.01;97631.38;4845432;29;20151;-82
2022/03/26 09:46:29;;;;;;;;;;;;;;;;;;;;;
2022/03/26 09:48:56;;;;;;;15.23;9.27;;;;;;;5.20;62.95;97606.34;4851388;29;20049;-80
2022/03/26 09:51:34;;;;;;;16.02;9.05;;;;;;;4.98;63.50;97582.75;4864623;29;20045;-80
2022/03/26 09:54:05;;;;;;;15.07;9.00;;;;;;;4.20;63.43;97441.84;4853854;29;20049;-81
2022/03/26 09:56:32;;;;;;;19.50;10.43;;;;;;;3.90;64.12;97414.16;4848646;29;20351;-81
2022/03/26 09:58:58;;;;;;;18.98;9.27;;;;;;;4.99;63.93;97579.28;4850461;29;20634;-81
2022/03/26 10:01:27;;;;;;;14.75;9.40;;;;;;;5.22;63.94;97620.06;4846486;29;20057;-80
2022/03/26 10:04:06;;;;;;;17.45;10.05;;;;;;;5.17;64.80;97603.00;4832431;29;20053;-80
2022/03/26 10:06:36;;;;;;;18.20;9.50;;;;;;;5.19;64.57;97614.97;4831321;29;20588;-80
2022/03/26 10:09:11;;;;;;;19.13;10.43;;;;;;;5.03;65.04;97598.97;4858310;29;20145;-81
2022/03/26 10:11:40;;;;;;;21.83;10.38;;;;;;;4.83;65.20;97568.50;4845147;29;20054;-80
2022/03/26 10:14:06;;;;;;;21.33;11.57;;;;;;;5.13;65.21;97610.81;4863607;29;20045;-81
2022/03/26 10:16:52;;;;;;;20.08;10.80;;;;;;;5.17;66.00;97601.25;4838962;29;20858;-83
2022/03/26 10:19:23;;;;;;;17.40;9.77;;;;;;;5.17;65.12;97605.59;4838805;29;20057;-79
2022/03/26 10:21:55;;;;;;;20.42;10.88;;;;;;;5.05;65.73;97581.75;4844612;29;20418;-81
2022/03/26 10:24:24;;;;;;;17.92;10.52;;;;;;;4.93;65.61;97545.94;4842870;29;20041;-81
2022/03/26 10:26:52;;;;;;;21.63;12.05;;;;;;;5.25;66.16;97601.09;4831485;29;20045;-81
2022/03/26 10:29:24;;;;;;;;;;;;;;;5.25;66.11;97599.38;4828919;29;20045;-82
2022/03/26 10:35:19;;;;;;;20.52;11.02;;;;;;;4.92;65.63;97533.94;4840933;29;20054;-81
2022/03/26 10:37:46;;;;;;;21.33;11.02;;;;;;;5.23;65.45;97548.69;4856659;29;20042;-82
2022/03/26 10:40:24;;;;;;;18.00;10.57;;;;;;;5.52;65.75;97585.84;4832667;29;20045;-82
2022/03/26 10:43:10;;;;;;;18.27;11.57;;;;;;;5.55;65.65;97580.63;4853589;29;20096;-81
2022/03/26 10:45:50;;;;;;;19.33;9.43;;;;;;;5.71;65.82;97584.53;4839341;29;20049;-81
2022/03/26 10:48:23;;;;;;;15.10;9.18;;;;;;;5.60;65.79;97534.06;4851807;29;20045;-81
2022/03/26 10:50:59;;;;;;;19.15;9.35;;;;;;;5.77;65.31;97533.66;4859469;29;20455;-83
2022/03/26 10:53:35;;;;;;;19.00;10.02;;;;;;;5.93;65.58;97567.66;4858803;29;20062;-80
2022/03/26 10:56:03;;;;;;;16.88;8.77;;;;;;;5.86;65.45;97554.91;4857444;29;20037;-79
2022/03/26 10:58:34;;;;;;;18.48;9.23;;;;;;;5.91;65.62;97547.03;4859947;29;20025;-83
2022/03/26 11:01:00;;;;;;;20.13;10.27;;;;;;;6.05;65.77;97538.13;4862250;29;20049;-80
2022/03/26 11:03:26;;;;;;;15.18;9.82;;;;;;;6.11;64.99;97536.22;4871199;29;20042;-82
2022/03/26 11:05:57;;;;;;;17.42;8.95;;;;;;;6.23;64.71;97518.69;4847326;29;20453;-83
2022/03/26 11:08:25;;;;;;;18.27;9.45;;;;;;;5.80;64.72;97423.44;4831152;29;20073;-80
2022/03/26 11:10:55;;;;;;;20.75;10.55;;;;;;;6.56;64.05;97524.63;4857918;29;20068;-79
2022/03/26 11:13:24;;;;;;;15.95;9.95;;;;;;;6.38;64.06;97478.66;4827663;29;20038;-81
2022/03/26 11:16:00;;;;;;;16.13;9.02;;;;;;;6.62;63.81;97495.22;4847936;29;20049;-80
2022/03/26 11:18:52;;;;;;;15.93;9.38;;;;;;;6.86;63.60;97506.53;4854751;29;20044;-82
2022/03/26 11:22:10;;;;;;;15.80;8.82;;;;;;;7.02;63.37;97499.16;4853520;29;20053;-80
2022/03/26 11:24:53;;;;;;;15.50;9.00;;;;;;;7.43;62.97;97485.78;4825340;29;20064;-79
2022/03/26 11:27:53;;;;;;;12.45;7.65;;;;;;;7.42;61.87;97493.59;4869513;29;20166;-79
2022/03/26 11:30:41;;;;;;;12.45;7.20;;;;;;;7.28;61.82;97487.16;4833920;29;20050;-81
2022/03/26 11:33:18;;;;;;;11.68;7.70;;;;;;;6.84;61.53;97398.91;4828907;29;20049;-80
2022/03/26 11:35:54;;;;;;;16.38;7.75;;;;;;;7.13;61.26;97510.88;4842855;29;20049;-80
2022/03/26 11:38:20;;;;;;;10.75;5.00;;;;;;;6.88;60.32;97592.66;4855932;29;20511;-81
2022/03/26 11:41:05;;;;;;;5.35;2.90;;;;;;;6.11;58.92;97580.13;4841438;29;20049;-84
2022/03/26 11:43:51;;;;;;;3.83;1.60;;;;;;;5.58;60.49;97630.41;4854873;29;20038;-81
2022/03/26 11:52:47;;;;;;;3.20;1.30;;;;;;;4.04;61.33;97497.97;4839913;29;20049;-80
2022/03/26 11:55:16;;;;;;;2.97;1.10;;;;;;;4.93;61.79;97608.63;4856109;29;20077;-82
2022/03/26 11:57:45;;;;;;;2.08;1.23;;;;;;;4.96;61.70;97582.81;4844457;29;20081;-83
2022/03/26 12:00:31;;;;;;;1.90;1.35;;;;;;;4.80;62.16;97494.66;4859067;29;20077;-83
2022/03/26 12:03:01;;;;;;;2.60;1.30;;;;;;;5.08;60.95;97483.72;4832950;29;20159;-80
2022/03/26 12:08:32;;;;;;;1.95;1.10;;;;;;;6.29;59.77;97609.75;4836608;29;20050;-81